Time;durP1;ratioP1;P1;durP2;ratioP2;P2;SDS_P1;SDS_P2;PMS_P1;PMS_P2;Temp;Humidity;BMP_temperature;BMP_pressure;BME280_temperature;BME280_humidity;BME280_pressure;Samples;Min_cycle;Max_cycle;Signal;HPM_P1;HPM_P2
2021/01/28 00:01:43;;;;;;;16.92;10.43;;;1.20;99.90;;;;;;5052794;28;20081;-79
2021/01/28 00:04:08;;;;;;;13.75;9.68;;;1.20;99.90;;;;;;5054307;28;20029;-79
2021/01/28 00:06:34;;;;;;;16.50;10.43;;;1.20;99.90;;;;;;5055094;28;20025;-78
2021/01/28 00:09:00;;;;;;;14.88;9.85;;;1.20;99.90;;;;;;5055067;28;20426;-78
2021/01/28 00:11:25;;;;;;;17.13;10.18;;;1.20;99.90;;;;;;5054929;28;20097;-78
2021/01/28 00:13:51;;;;;;;15.00;10.23;;;1.20;99.90;;;;;;5054992;28;20021;-78
2021/01/28 00:16:17;;;;;;;17.77;10.90;;;1.20;99.90;;;;;;5054985;28;20053;-77
2021/01/28 00:18:42;;;;;;;16.75;9.60;;;1.20;99.90;;;;;;5054843;28;20462;-79
2021/01/28 00:21:08;;;;;;;13.48;9.35;;;1.20;99.90;;;;;;5054641;28;20025;-78
2021/01/28 00:23:34;;;;;;;13.25;10.00;;;1.20;99.90;;;;;;5054771;28;20103;-78
2021/01/28 00:26:00;;;;;;;17.02;11.05;;;1.20;99.90;;;;;;5055359;28;20475;-78
2021/01/28 00:28:25;;;;;;;14.32;9.40;;;1.20;99.90;;;;;;5055080;28;20033;-78
2021/01/28 00:30:52;;;;;;;11.10;8.20;;;1.20;99.90;;;;;;5054777;28;20021;-79
2021/01/28 00:33:21;;;;;;;13.55;9.13;;;1.20;99.90;;;;;;5054094;28;20060;-78
2021/01/28 00:35:49;;;;;;;16.55;9.30;;;1.20;99.90;;;;;;5054564;28;20032;-78
2021/01/28 00:38:27;;;;;;;16.35;9.85;;;1.20;99.90;;;;;;5054175;28;20029;-78
2021/01/28 00:40:54;;;;;;;13.48;9.05;;;1.30;99.90;;;;;;5053247;28;20025;-78
2021/01/28 00:43:21;;;;;;;27.83;10.20;;;1.20;99.90;;;;;;5054333;28;20017;-79
2021/01/28 00:45:48;;;;;;;16.08;10.45;;;1.30;99.90;;;;;;5054465;28;20059;-79
2021/01/28 00:48:14;;;;;;;13.50;9.10;;;1.30;99.90;;;;;;5054405;28;20032;-79
2021/01/28 00:50:41;;;;;;;15.00;9.25;;;1.20;99.90;;;;;;5054501;28;20471;-79
2021/01/28 00:53:09;;;;;;;13.20;8.68;;;1.20;99.90;;;;;;5054272;28;20100;-79
2021/01/28 00:55:35;;;;;;;13.18;8.60;;;1.20;99.90;;;;;;5053783;28;20024;-78
2021/01/28 00:58:01;;;;;;;13.23;8.73;;;1.20;99.90;;;;;;5054007;28;20029;-79
2021/01/28 01:00:37;;;;;;;14.43;9.32;;;1.20;99.90;;;;;;5054669;28;20028;-78
2021/01/28 01:03:03;;;;;;;21.40;12.07;;;1.20;99.90;;;;;;5054454;28;20049;-80
2021/01/28 01:05:32;;;;;;;14.50;9.18;;;1.20;99.90;;;;;;5054684;28;20044;-79
2021/01/28 01:07:59;;;;;;;18.98;10.05;;;1.10;99.90;;;;;;5054721;28;20096;-79
2021/01/28 01:10:34;;;;;;;19.65;9.90;;;1.10;99.90;;;;;;5054529;28;20807;-79
2021/01/28 01:13:00;;;;;;;23.13;11.55;;;1.10;99.90;;;;;;5054085;28;20040;-80
2021/01/28 01:15:25;;;;;;;23.05;12.77;;;1.10;99.90;;;;;;5054268;28;20024;-80
2021/01/28 01:17:51;;;;;;;17.27;10.73;;;1.10;99.90;;;;;;5054393;28;20096;-80
2021/01/28 01:20:21;;;;;;;18.52;10.93;;;1.10;99.90;;;;;;5054096;28;20025;-80
2021/01/28 01:22:47;;;;;;;24.20;12.75;;;1.10;99.90;;;;;;5054104;28;20491;-80
2021/01/28 01:25:15;;;;;;;12.75;9.10;;;1.10;99.90;;;;;;5054182;28;20031;-81
2021/01/28 01:27:41;;;;;;;12.95;8.85;;;1.00;99.90;;;;;;5053832;28;20056;-81
2021/01/28 01:30:08;;;;;;;12.77;9.13;;;1.10;99.90;;;;;;5052416;28;20422;-77
2021/01/28 01:32:34;;;;;;;16.05;9.98;;;1.00;99.90;;;;;;5051344;28;20119;-76
2021/01/28 01:35:00;;;;;;;18.15;11.40;;;1.10;99.90;;;;;;5052352;28;20029;-77
2021/01/28 01:37:26;;;;;;;15.60;9.43;;;1.10;99.90;;;;;;5052407;28;20074;-77
2021/01/28 01:39:51;;;;;;;16.13;9.85;;;1.00;99.90;;;;;;5050965;28;20029;-77
2021/01/28 01:42:18;;;;;;;14.23;8.75;;;1.00;99.90;;;;;;5052352;28;20032;-76
2021/01/28 01:44:44;;;;;;;15.77;9.77;;;1.00;99.90;;;;;;5052105;28;20068;-76
2021/01/28 01:47:25;;;;;;;17.20;10.10;;;1.10;99.90;;;;;;5052385;28;20052;-76
2021/01/28 01:49:51;;;;;;;18.65;10.98;;;1.00;99.90;;;;;;5052193;28;20021;-76
2021/01/28 01:52:18;;;;;;;18.42;12.30;;;1.00;99.90;;;;;;5050857;28;20028;-76
2021/01/28 01:54:47;;;;;;;23.95;14.25;;;1.00;99.90;;;;;;5051011;28;20025;-77
2021/01/28 01:57:35;;;;;;;19.38;12.27;;;1.00;99.90;;;;;;5052253;28;20029;-76
2021/01/28 02:00:07;;;;;;;19.88;12.65;;;1.10;99.90;;;;;;5052056;28;20075;-76
2021/01/28 02:02:35;;;;;;;12.52;8.07;;;1.00;99.90;;;;;;5050678;28;20045;-77
2021/01/28 02:05:12;;;;;;;11.82;8.85;;;1.10;99.90;;;;;;5052094;28;20029;-76
2021/01/28 02:07:38;;;;;;;12.93;8.02;;;1.00;99.90;;;;;;5051367;28;20032;-77
2021/01/28 02:10:11;;;;;;;14.18;8.60;;;1.10;99.90;;;;;;5050622;28;20032;-77
2021/01/28 02:12:37;;;;;;;14.95;8.80;;;1.10;99.90;;;;;;5050549;28;20309;-76
2021/01/28 02:15:05;;;;;;;12.15;9.07;;;1.10;99.90;;;;;;5050516;28;20059;-75
2021/01/28 02:17:31;;;;;;;11.98;7.57;;;1.10;99.90;;;;;;5051697;28;20035;-75
2021/01/28 02:20:38;;;;;;;14.73;10.20;;;1.00;99.90;;;;;;5050193;28;20029;-75
2021/01/28 02:23:28;;;;;;;12.30;9.07;;;1.00;99.90;;;;;;5036988;28;20041;-75
2021/01/28 02:25:54;;;;;;;14.10;9.30;;;1.00;99.90;;;;;;5050334;28;20112;-74
2021/01/28 02:28:20;;;;;;;16.63;10.85;;;1.00;99.90;;;;;;5051632;28;20028;-75
2021/01/28 02:30:50;;;;;;;11.73;8.05;;;1.00;99.90;;;;;;5051719;28;20022;-75
2021/01/28 02:33:34;;;;;;;13.55;7.95;;;1.10;99.90;;;;;;5051635;28;20032;-75
2021/01/28 02:36:00;;;;;;;9.40;7.53;;;1.10;99.90;;;;;;5050397;28;20025;-75
2021/01/28 02:38:26;;;;;;;15.75;9.55;;;1.10;99.90;;;;;;5051426;28;20028;-76
2021/01/28 02:40:52;;;;;;;15.45;10.48;;;1.10;99.90;;;;;;5051545;28;20021;-76
2021/01/28 02:43:17;;;;;;;14.02;8.85;;;1.10;99.90;;;;;;5051630;28;20033;-76
2021/01/28 02:45:43;;;;;;;13.07;8.20;;;1.10;99.90;;;;;;5050296;28;20021;-76
2021/01/28 02:48:11;;;;;;;14.13;8.85;;;1.10;99.90;;;;;;5051571;28;20028;-76
2021/01/28 02:50:37;;;;;;;11.80;7.70;;;1.10;99.90;;;;;;5051699;28;20028;-76
2021/01/28 02:53:05;;;;;;;11.50;7.80;;;1.10;99.90;;;;;;5051616;28;20032;-76
2021/01/28 02:55:33;;;;;;;15.85;8.38;;;1.10;99.90;;;;;;5051474;28;20017;-76
2021/01/28 02:57:59;;;;;;;12.27;7.32;;;1.10;99.90;;;;;;5051462;28;20017;-76
2021/01/28 03:00:34;;;;;;;11.70;7.75;;;1.10;99.90;;;;;;5050257;28;20324;-76
2021/01/28 03:03:04;;;;;;;10.60;7.80;;;1.10;99.90;;;;;;5049909;28;20514;-76
2021/01/28 03:05:30;;;;;;;12.52;8.07;;;1.10;99.90;;;;;;5051501;28;20071;-75
2021/01/28 03:07:55;;;;;;;13.10;8.05;;;1.20;99.90;;;;;;5051352;28;20029;-76
2021/01/28 03:10:23;;;;;;;12.27;8.65;;;1.20;99.90;;;;;;5051285;28;20023;-75
2021/01/28 03:12:49;;;;;;;11.77;7.75;;;1.20;99.90;;;;;;5050156;28;20049;-75
2021/01/28 03:15:17;;;;;;;13.95;8.57;;;1.20;99.90;;;;;;5051119;28;20021;-76
2021/01/28 03:17:43;;;;;;;10.63;6.95;;;1.20;99.90;;;;;;5052864;28;20036;-75
2021/01/28 03:20:11;;;;;;;13.95;8.60;;;1.20;99.90;;;;;;5055059;28;20029;-76
2021/01/28 03:22:38;;;;;;;10.45;7.70;;;1.20;99.90;;;;;;5054790;28;20021;-75
2021/01/28 03:25:06;;;;;;;12.40;7.38;;;1.20;99.90;;;;;;5054887;28;20032;-75
2021/01/28 03:27:31;;;;;;;11.50;7.38;;;1.20;99.90;;;;;;5053597;28;20029;-75
2021/01/28 03:29:57;;;;;;;10.73;7.30;;;1.30;99.90;;;;;;5054742;28;20024;-75
2021/01/28 03:32:23;;;;;;;12.20;7.38;;;1.30;99.90;;;;;;5054625;28;20025;-76
2021/01/28 03:34:49;;;;;;;9.43;6.88;;;1.30;99.90;;;;;;5054621;28;20033;-75
2021/01/28 03:37:15;;;;;;;10.00;6.80;;;1.30;99.90;;;;;;5054541;28;20021;-75
2021/01/28 03:39:40;;;;;;;12.88;7.82;;;1.30;99.90;;;;;;5054524;28;20083;-75
2021/01/28 03:42:06;;;;;;;10.23;7.20;;;1.30;99.90;;;;;;5053191;28;20053;-75
2021/01/28 03:44:32;;;;;;;9.98;7.05;;;1.20;99.90;;;;;;5054352;28;20407;-75
2021/01/28 03:46:58;;;;;;;11.88;7.00;;;1.20;99.90;;;;;;5054483;28;20021;-75
2021/01/28 03:49:24;;;;;;;12.73;8.20;;;1.20;99.90;;;;;;5053105;28;20031;-75
2021/01/28 03:51:50;;;;;;;10.48;7.18;;;1.20;99.90;;;;;;5054377;28;20024;-75
2021/01/28 03:54:16;;;;;;;12.88;8.05;;;1.20;99.90;;;;;;5054387;28;20025;-74
2021/01/28 03:56:41;;;;;;;10.07;6.75;;;1.20;99.90;;;;;;5054208;28;20025;-75
2021/01/28 03:59:07;;;;;;;9.23;6.43;;;1.10;99.90;;;;;;5054634;28;20033;-75
2021/01/28 04:01:33;;;;;;;9.38;6.63;;;1.20;99.90;;;;;;5054132;28;20106;-74
2021/01/28 04:03:58;;;;;;;10.32;6.72;;;1.10;99.90;;;;;;5053971;28;20382;-76
2021/01/28 04:06:24;;;;;;;10.32;6.78;;;1.10;99.90;;;;;;5054040;28;20017;-75
2021/01/28 04:08:50;;;;;;;9.95;6.95;;;1.10;99.90;;;;;;5052767;28;20375;-75
2021/01/28 04:11:15;;;;;;;10.05;6.90;;;1.10;99.90;;;;;;5053939;28;20557;-76
2021/01/28 04:13:41;;;;;;;11.23;7.68;;;1.10;99.90;;;;;;5053916;28;20100;-75
2021/01/28 04:16:07;;;;;;;12.43;8.40;;;1.10;99.90;;;;;;5053763;28;20025;-76
2021/01/28 04:18:33;;;;;;;24.38;14.43;;;1.10;99.90;;;;;;5053725;28;20032;-75
2021/01/28 04:20:58;;;;;;;24.83;13.13;;;1.10;99.90;;;;;;5053692;28;20494;-75
2021/01/28 04:23:24;;;;;;;31.75;16.92;;;1.10;99.90;;;;;;5053703;28;20033;-75
2021/01/28 04:25:50;;;;;;;23.48;12.52;;;1.10;99.90;;;;;;5053766;28;20028;-76
2021/01/28 04:28:15;;;;;;;21.13;11.50;;;1.10;99.90;;;;;;5053596;28;20021;-75
2021/01/28 04:30:41;;;;;;;26.92;13.60;;;1.20;99.90;;;;;;5052940;28;20049;-75
2021/01/28 04:33:09;;;;;;;22.17;12.82;;;1.10;99.90;;;;;;5052215;28;20043;-74
2021/01/28 04:35:34;;;;;;;21.60;12.73;;;1.20;99.90;;;;;;5053498;28;20020;-75
2021/01/28 04:38:00;;;;;;;14.02;7.40;;;1.20;99.90;;;;;;5053422;28;20433;-76
2021/01/28 04:40:29;;;;;;;12.73;8.88;;;1.20;99.90;;;;;;5052141;28;20112;-76
2021/01/28 04:42:57;;;;;;;11.52;7.55;;;1.10;99.90;;;;;;5053274;28;20021;-76
2021/01/28 04:45:28;;;;;;;14.05;9.30;;;1.20;99.90;;;;;;5051848;28;20063;-75
2021/01/28 04:48:05;;;;;;;10.90;7.68;;;1.20;99.90;;;;;;5052844;28;20049;-75
2021/01/28 04:50:36;;;;;;;12.05;7.35;;;1.20;99.90;;;;;;5052483;28;20533;-76
2021/01/28 04:53:11;;;;;;;10.63;7.60;;;1.20;99.90;;;;;;5053132;28;20021;-76
2021/01/28 04:55:46;;;;;;;8.80;6.53;;;1.20;99.90;;;;;;5052531;28;20017;-76
2021/01/28 04:58:12;;;;;;;12.07;8.32;;;1.20;99.90;;;;;;5052543;28;20053;-76
2021/01/28 05:00:38;;;;;;;15.07;8.32;;;1.20;99.90;;;;;;5052560;28;20025;-76
2021/01/28 05:03:19;;;;;;;26.63;13.77;;;1.20;99.90;;;;;;5052187;28;20099;-76
2021/01/28 05:05:48;;;;;;;21.23;11.07;;;1.20;99.90;;;;;;5052368;28;20029;-75
2021/01/28 05:08:14;;;;;;;31.40;14.90;;;1.20;99.90;;;;;;5052416;28;20017;-75
2021/01/28 05:10:44;;;;;;;35.45;19.13;;;1.20;99.90;;;;;;5052219;28;20464;-75
2021/01/28 05:13:10;;;;;;;44.53;23.45;;;1.20;99.90;;;;;;5052158;28;20088;-75
2021/01/28 05:15:37;;;;;;;29.45;18.33;;;1.10;99.90;;;;;;5052245;28;20074;-76
2021/01/28 05:18:25;;;;;;;18.77;11.82;;;1.10;99.90;;;;;;5052073;28;20112;-75
2021/01/28 05:20:51;;;;;;;24.25;13.13;;;1.20;99.90;;;;;;5052050;28;20021;-75
2021/01/28 05:23:38;;;;;;;22.98;12.55;;;1.10;99.90;;;;;;5051946;28;20414;-75
2021/01/28 05:26:25;;;;;;;25.48;12.75;;;1.10;99.90;;;;;;5052140;28;20033;-75
2021/01/28 05:28:51;;;;;;;31.08;15.00;;;1.10;99.90;;;;;;5051912;28;20047;-75
2021/01/28 05:31:25;;;;;;;27.20;13.80;;;1.10;99.90;;;;;;5051949;28;20039;-76
2021/01/28 05:33:51;;;;;;;16.42;10.30;;;1.10;99.90;;;;;;5051675;28;20032;-75
2021/01/28 05:36:24;;;;;;;17.95;10.05;;;1.20;99.90;;;;;;5050227;28;20025;-76
2021/01/28 05:38:55;;;;;;;13.07;8.60;;;1.10;99.90;;;;;;5050083;28;20526;-76
2021/01/28 05:41:56;;;;;;;11.70;8.30;;;1.10;99.90;;;;;;5051071;28;20143;-74
2021/01/28 05:44:30;;;;;;;18.27;9.60;;;1.10;99.90;;;;;;5046526;28;20053;-75
2021/01/28 05:47:22;;;;;;;13.40;8.80;;;1.20;99.90;;;;;;5051600;28;20510;-75
2021/01/28 05:49:48;;;;;;;14.60;9.93;;;1.20;99.90;;;;;;5051412;28;20039;-76
2021/01/28 05:52:34;;;;;;;19.40;12.07;;;1.20;99.90;;;;;;5051345;28;20020;-76
2021/01/28 05:55:32;;;;;;;12.75;8.32;;;1.20;99.90;;;;;;5057869;28;20040;-73
2021/01/28 05:58:50;;;;;;;14.15;8.77;;;1.20;99.90;;;;;;5051527;28;20040;-75
2021/01/28 06:01:50;;;;;;;11.43;7.85;;;1.20;99.90;;;;;;4991066;28;20053;-77
2021/01/28 06:04:45;;;;;;;16.55;9.20;;;1.20;99.90;;;;;;5051602;28;20383;-76
2021/01/28 06:07:33;;;;;;;16.48;8.48;;;1.20;99.90;;;;;;5053290;28;20021;-76
2021/01/28 06:10:27;;;;;;;15.43;9.80;;;1.20;99.90;;;;;;5057783;28;20036;-76
2021/01/28 06:13:30;;;;;;;15.10;9.30;;;1.20;99.90;;;;;;5046830;28;20084;-75
2021/01/28 06:16:02;;;;;;;17.17;10.25;;;1.30;99.90;;;;;;5050524;28;20032;-76
2021/01/28 06:18:37;;;;;;;20.03;13.80;;;1.30;99.90;;;;;;5050250;28;20021;-76
2021/01/28 06:21:19;;;;;;;21.95;15.02;;;1.30;99.90;;;;;;5050220;28;20104;-76
2021/01/28 06:23:57;;;;;;;;;;;1.30;99.90;;;;;;5051177;28;20040;-77
2021/01/28 06:26:50;;;;;;;17.05;10.43;;;1.30;99.90;;;;;;5050514;28;19908;-76
2021/01/28 06:29:37;;;;;;;14.23;10.00;;;1.30;99.90;;;;;;5050414;28;20128;-75
2021/01/28 06:32:05;;;;;;;21.55;13.25;;;1.30;99.90;;;;;;5050888;28;20491;-76
2021/01/28 06:34:37;;;;;;;25.20;14.27;;;1.30;99.90;;;;;;5049756;28;20753;-76
2021/01/28 06:37:09;;;;;;;25.17;14.27;;;1.30;99.90;;;;;;5050530;28;20032;-77
2021/01/28 06:40:01;;;;;;;24.15;14.38;;;1.40;99.90;;;;;;5050530;28;20761;-75
2021/01/28 06:42:35;;;;;;;35.78;19.80;;;1.40;99.90;;;;;;5048966;28;20060;-75
2021/01/28 06:45:14;;;;;;;21.90;13.68;;;1.40;99.90;;;;;;5049228;28;20053;-77
2021/01/28 06:47:58;;;;;;;23.08;14.60;;;1.40;99.90;;;;;;5050443;28;20044;-75
2021/01/28 06:50:46;;;;;;;23.83;14.20;;;1.40;99.90;;;;;;5048860;28;20040;-77
2021/01/28 06:53:22;;;;;;;21.65;13.57;;;1.40;99.90;;;;;;5052948;28;20104;-76
2021/01/28 06:55:50;;;;;;;26.75;16.85;;;1.50;99.90;;;;;;5054401;28;20096;-76
2021/01/28 06:58:52;;;;;;;23.67;13.82;;;1.50;99.90;;;;;;5054023;28;20087;-76
2021/01/28 07:01:24;;;;;;;27.05;15.70;;;1.50;99.90;;;;;;5054491;28;20142;-75
2021/01/28 07:04:21;;;;;;;26.27;15.50;;;1.50;99.90;;;;;;5055406;28;20063;-81
2021/01/28 07:06:56;;;;;;;25.33;16.13;;;1.60;99.90;;;;;;5056163;28;20103;-79
2021/01/28 07:09:41;;;;;;;30.55;17.38;;;1.60;99.90;;;;;;5054077;28;20050;-81
2021/01/28 07:12:11;;;;;;;22.85;14.15;;;1.60;99.90;;;;;;5055652;28;20059;-81
2021/01/28 07:14:38;;;;;;;25.42;14.95;;;1.70;99.90;;;;;;5055657;28;20036;-80
2021/01/28 07:17:23;;;;;;;26.88;14.05;;;1.70;99.90;;;;;;5053955;28;20111;-80
2021/01/28 07:19:50;;;;;;;27.05;15.65;;;1.80;99.90;;;;;;5054413;28;20025;-80
2021/01/28 07:22:29;;;;;;;29.50;16.60;;;1.80;99.90;;;;;;5055215;28;20036;-79
2021/01/28 07:24:56;;;;;;;24.92;15.25;;;1.80;99.90;;;;;;5055729;28;20116;-80
2021/01/28 07:27:43;;;;;;;22.88;14.73;;;1.90;99.90;;;;;;5056022;28;20029;-80
2021/01/28 07:30:55;;;;;;;22.48;12.68;;;1.90;99.90;;;;;;5053135;28;20059;-81
2021/01/28 07:33:23;;;;;;;30.80;17.92;;;1.90;99.90;;;;;;5046570;28;20120;-82
2021/01/28 07:35:51;;;;;;;42.90;22.17;;;2.00;99.90;;;;;;5054753;28;20032;-81
2021/01/28 07:38:32;;;;;;;48.50;24.13;;;2.00;99.90;;;;;;5053178;28;20074;-81
2021/01/28 07:41:08;;;;;;;45.15;25.48;;;2.10;99.90;;;;;;5052707;28;20157;-80
2021/01/28 07:43:39;;;;;;;34.05;20.08;;;2.10;99.90;;;;;;5054185;28;20032;-80
2021/01/28 07:46:28;;;;;;;28.33;16.45;;;2.20;99.90;;;;;;5054601;28;20108;-80
2021/01/28 07:49:33;;;;;;;31.13;15.55;;;2.30;99.90;;;;;;5052795;28;20086;-80
2021/01/28 07:51:58;;;;;;;24.42;13.98;;;2.30;99.90;;;;;;5032313;28;20074;-80
2021/01/28 07:54:24;;;;;;;27.27;16.20;;;2.30;99.90;;;;;;5049713;28;20052;-81
2021/01/28 07:57:08;;;;;;;26.02;14.60;;;2.30;99.90;;;;;;5053897;28;20032;-77
2021/01/28 07:59:49;;;;;;;24.25;14.15;;;2.30;99.90;;;;;;5052814;28;20059;-77
2021/01/28 08:02:32;;;;;;;22.05;13.23;;;2.30;99.90;;;;;;5052622;28;20045;-76
2021/01/28 08:05:03;;;;;;;18.40;12.00;;;2.20;99.90;;;;;;5051948;28;20106;-76
2021/01/28 08:07:31;;;;;;;17.70;11.70;;;2.20;99.90;;;;;;5052675;28;20495;-77
2021/01/28 08:09:59;;;;;;;24.65;14.25;;;2.30;99.90;;;;;;5052809;28;20025;-76
2021/01/28 08:12:43;;;;;;;43.08;22.00;;;2.30;99.90;;;;;;5051291;28;20017;-76
2021/01/28 08:15:18;;;;;;;32.28;17.77;;;2.40;99.90;;;;;;5052719;28;20032;-78
2021/01/28 08:17:44;;;;;;;41.67;20.65;;;2.40;99.90;;;;;;5052831;28;20056;-76
2021/01/28 08:20:16;;;;;;;32.05;18.45;;;2.40;99.90;;;;;;5052682;28;20048;-77
2021/01/28 08:22:54;;;;;;;24.40;15.15;;;2.40;99.90;;;;;;5052427;28;20475;-77
2021/01/28 08:25:21;;;;;;;24.60;15.52;;;2.50;99.90;;;;;;5052414;28;20032;-77
2021/01/28 08:27:47;;;;;;;43.90;22.27;;;2.50;99.90;;;;;;5051084;28;20438;-77
2021/01/28 08:30:26;;;;;;;50.75;23.13;;;2.50;99.90;;;;;;5052589;28;20017;-77
2021/01/28 08:32:59;;;;;;;34.45;17.13;;;2.50;99.90;;;;;;5052734;28;20475;-76
2021/01/28 08:35:36;;;;;;;42.85;21.10;;;2.60;99.90;;;;;;5052742;28;20031;-78
2021/01/28 08:38:06;;;;;;;31.38;17.13;;;2.70;99.90;;;;;;5051926;28;20029;-76
2021/01/28 08:40:32;;;;;;;38.30;20.33;;;2.80;99.90;;;;;;5052463;28;20442;-76
2021/01/28 08:43:20;;;;;;;31.77;18.52;;;2.80;99.90;;;;;;5052463;28;20028;-76
2021/01/28 08:45:46;;;;;;;37.30;19.95;;;2.80;99.90;;;;;;5052257;28;20033;-77
2021/01/28 08:48:15;;;;;;;29.85;16.55;;;2.80;99.90;;;;;;5050611;28;20731;-76
2021/01/28 08:50:42;;;;;;;47.15;19.77;;;2.90;99.90;;;;;;5052405;28;20082;-78
2021/01/28 08:53:22;;;;;;;32.80;17.67;;;3.10;99.90;;;;;;5051851;28;20654;-78
2021/01/28 08:55:49;;;;;;;36.40;20.15;;;3.20;99.90;;;;;;5052213;28;20017;-78
2021/01/28 08:58:27;;;;;;;34.70;18.60;;;3.40;99.90;;;;;;5052049;28;20073;-77
2021/01/28 09:00:59;;;;;;;25.65;14.02;;;3.50;99.90;;;;;;5051709;28;20020;-78
2021/01/28 09:03:52;;;;;;;22.73;15.03;;;3.60;99.90;;;;;;5050378;28;20177;-77
2021/01/28 09:06:18;;;;;;;25.35;15.40;;;3.60;99.90;;;;;;5049418;28;20310;-77
2021/01/28 09:08:44;;;;;;;26.83;16.00;;;3.60;99.90;;;;;;5052196;28;20029;-78
2021/01/28 09:11:15;;;;;;;26.02;14.23;;;3.70;99.90;;;;;;5051675;28;20044;-76
2021/01/28 09:14:00;;;;;;;20.42;13.43;;;3.70;99.90;;;;;;5051164;28;20036;-78
2021/01/28 09:16:26;;;;;;;27.45;17.13;;;3.70;99.90;;;;;;5051669;28;20041;-77
2021/01/28 09:18:53;;;;;;;22.15;13.02;;;3.60;99.90;;;;;;5051579;28;20040;-77
2021/01/28 09:21:20;;;;;;;26.42;16.25;;;3.60;99.90;;;;;;5051480;28;20028;-78
2021/01/28 09:24:04;;;;;;;22.70;13.90;;;3.50;99.90;;;;;;5051725;28;20119;-77
2021/01/28 09:26:36;;;;;;;26.98;15.32;;;3.50;99.90;;;;;;5052553;28;20033;-82
2021/01/28 09:29:33;;;;;;;20.88;13.07;;;3.40;99.90;;;;;;5053055;28;20032;-83
2021/01/28 09:32:17;;;;;;;25.20;15.80;;;3.40;99.90;;;;;;5053324;28;20715;-81
2021/01/28 09:34:43;;;;;;;22.05;13.98;;;3.40;99.90;;;;;;5051386;28;20029;-84
2021/01/28 09:37:22;;;;;;;24.63;15.45;;;3.40;99.90;;;;;;5052792;28;20025;-83
2021/01/28 09:39:52;;;;;;;29.50;17.55;;;3.40;99.90;;;;;;5051963;28;20120;-84
2021/01/28 09:42:30;;;;;;;24.85;15.48;;;3.40;99.90;;;;;;5051879;28;20386;-83
2021/01/28 09:45:23;;;;;;;25.08;15.30;;;3.40;99.90;;;;;;5051805;28;20124;-84
2021/01/28 09:47:52;;;;;;;;;;;3.30;99.90;;;;;;5046092;28;20037;-84
2021/01/28 09:50:18;;;;;;;25.98;15.60;;;3.30;99.90;;;;;;5052693;28;19944;-82
2021/01/28 09:52:47;;;;;;;32.65;16.20;;;3.30;99.90;;;;;;5054295;28;20113;-84
2021/01/28 09:55:20;;;;;;;27.30;15.68;;;3.20;99.90;;;;;;5053281;28;20029;-83
2021/01/28 09:57:46;;;;;;;35.47;18.88;;;3.20;99.90;;;;;;5052863;28;20171;-83
2021/01/28 10:00:18;;;;;;;76.65;27.33;;;3.20;99.90;;;;;;5050736;28;20067;-84
2021/01/28 10:02:48;;;;;;;68.70;27.23;;;3.20;99.90;;;;;;5051077;28;20049;-83
2021/01/28 10:05:17;;;;;;;60.42;27.45;;;3.20;99.90;;;;;;5050446;28;20072;-83
2021/01/28 10:07:43;;;;;;;84.50;34.70;;;3.20;99.90;;;;;;5052336;28;20502;-84
2021/01/28 10:10:09;;;;;;;74.78;32.65;;;3.30;99.90;;;;;;5050997;28;20037;-85
2021/01/28 10:12:35;;;;;;;34.30;18.48;;;3.30;99.90;;;;;;5052218;28;20029;-85
2021/01/28 10:15:02;;;;;;;35.13;18.98;;;3.40;99.90;;;;;;5051229;28;20033;-83
2021/01/28 10:17:27;;;;;;;21.95;14.18;;;3.40;99.90;;;;;;5051161;28;20090;-84
2021/01/28 10:19:53;;;;;;;18.65;12.30;;;3.40;99.90;;;;;;5049234;28;20120;-85
2021/01/28 10:22:21;;;;;;;30.85;17.35;;;3.40;99.90;;;;;;5052134;28;20347;-85
2021/01/28 10:24:47;;;;;;;25.95;17.05;;;3.40;99.90;;;;;;5051209;28;20036;-85
2021/01/28 10:27:13;;;;;;;21.85;14.50;;;3.40;99.90;;;;;;5051821;28;20092;-84
2021/01/28 10:29:41;;;;;;;22.33;13.18;;;3.40;99.90;;;;;;5050844;28;20467;-84
2021/01/28 10:32:10;;;;;;;21.95;12.82;;;3.30;99.90;;;;;;5050557;28;20032;-84
2021/01/28 10:34:36;;;;;;;23.00;14.90;;;3.30;99.90;;;;;;5052009;28;20101;-85
2021/01/28 10:37:04;;;;;;;18.00;11.77;;;3.30;99.90;;;;;;5052546;28;20032;-84
2021/01/28 10:39:29;;;;;;;18.42;11.98;;;3.30;99.90;;;;;;5050974;28;20021;-85
2021/01/28 10:41:55;;;;;;;21.98;13.75;;;3.30;99.90;;;;;;5050402;28;20448;-84
2021/01/28 10:44:21;;;;;;;23.45;14.27;;;3.20;99.90;;;;;;5052535;28;20032;-84
2021/01/28 10:46:48;;;;;;;30.00;15.65;;;3.30;99.90;;;;;;5052043;28;20123;-87
2021/01/28 10:49:13;;;;;;;21.02;11.90;;;3.30;99.90;;;;;;5050902;28;20075;-85
2021/01/28 10:51:39;;;;;;;23.40;13.88;;;3.40;99.90;;;;;;5051941;28;20025;-85
2021/01/28 10:54:05;;;;;;;32.72;16.65;;;3.40;99.90;;;;;;5052106;28;20094;-86
2021/01/28 10:56:31;;;;;;;27.73;14.07;;;3.40;99.90;;;;;;5051156;28;20056;-86
2021/01/28 10:58:56;;;;;;;27.15;13.93;;;3.50;99.90;;;;;;5050744;28;20025;-84
2021/01/28 11:01:23;;;;;;;36.55;19.25;;;3.50;99.90;;;;;;5050655;28;20502;-88
2021/01/28 11:03:48;;;;;;;41.25;21.98;;;3.50;99.90;;;;;;5050955;28;20040;-86
2021/01/28 11:06:14;;;;;;;50.58;23.48;;;3.40;99.90;;;;;;5052065;28;20021;-86
2021/01/28 11:08:40;;;;;;;39.78;21.98;;;3.40;99.90;;;;;;5051324;28;20032;-86
2021/01/28 11:11:07;;;;;;;33.38;17.40;;;3.30;99.90;;;;;;5051774;28;20021;-85
2021/01/28 11:13:33;;;;;;;29.00;16.33;;;3.30;99.90;;;;;;5051596;28;20022;-86
2021/01/28 11:15:59;;;;;;;34.70;17.00;;;3.20;99.90;;;;;;5050322;28;20075;-85
2021/01/28 11:18:25;;;;;;;25.95;14.57;;;3.20;99.90;;;;;;5052487;28;20017;-85
2021/01/28 11:20:51;;;;;;;28.23;15.77;;;3.20;99.90;;;;;;5052910;28;20021;-87
2021/01/28 11:23:16;;;;;;;30.63;16.20;;;3.20;99.90;;;;;;5050954;28;20467;-87
2021/01/28 11:25:42;;;;;;;34.05;18.83;;;3.10;99.90;;;;;;5052510;28;20099;-87
2021/01/28 11:28:08;;;;;;;31.15;17.45;;;3.10;99.90;;;;;;5052023;28;20079;-85
2021/01/28 11:30:35;;;;;;;26.48;15.75;;;3.10;99.90;;;;;;5050843;28;20025;-86
2021/01/28 11:33:03;;;;;;;34.13;17.70;;;3.00;99.90;;;;;;5052193;28;20024;-87
2021/01/28 11:35:32;;;;;;;28.55;17.35;;;3.00;99.90;;;;;;5052267;28;20025;-86
2021/01/28 11:37:59;;;;;;;29.55;18.48;;;2.90;99.90;;;;;;5051895;28;20044;-86
2021/01/28 11:40:27;;;;;;;26.67;14.35;;;2.90;99.90;;;;;;5055035;28;20029;-86
2021/01/28 11:42:53;;;;;;;30.02;17.80;;;2.80;99.90;;;;;;5055192;28;20021;-86
2021/01/28 11:45:22;;;;;;;22.73;14.20;;;2.80;99.90;;;;;;5054509;28;20048;-87
2021/01/28 11:47:48;;;;;;;31.30;15.98;;;2.80;99.90;;;;;;5056004;28;20017;-87
2021/01/28 11:50:14;;;;;;;28.10;16.80;;;2.80;99.90;;;;;;5056152;28;20028;-84
2021/01/28 11:52:40;;;;;;;25.95;15.60;;;2.80;99.90;;;;;;5055635;28;20684;-87
2021/01/28 11:55:12;;;;;;;21.10;13.75;;;2.80;99.90;;;;;;5054982;28;20025;-85
2021/01/28 11:57:37;;;;;;;26.50;15.73;;;2.80;99.90;;;;;;5055223;28;20383;-87
2021/01/28 12:00:05;;;;;;;21.20;13.75;;;2.80;99.90;;;;;;5053838;28;20053;-86
2021/01/28 12:02:31;;;;;;;26.58;14.90;;;2.90;99.90;;;;;;5054284;28;20049;-87
2021/01/28 12:04:57;;;;;;;31.40;17.08;;;2.80;99.90;;;;;;5055407;28;20028;-87
2021/01/28 12:07:23;;;;;;;30.17;17.55;;;2.90;99.90;;;;;;5056322;28;20040;-86
2021/01/28 12:09:48;;;;;;;29.98;16.95;;;2.90;99.90;;;;;;5053478;28;20784;-86
2021/01/28 12:12:14;;;;;;;34.15;18.77;;;2.90;99.90;;;;;;5053425;28;20047;-86
2021/01/28 12:14:40;;;;;;;37.80;18.55;;;2.90;99.90;;;;;;5055094;28;20044;-86
2021/01/28 12:17:06;;;;;;;38.53;20.02;;;2.90;99.90;;;;;;5053646;28;20029;-85
2021/01/28 12:19:31;;;;;;;37.28;19.05;;;2.90;99.90;;;;;;5054895;28;20055;-87
2021/01/28 12:21:57;;;;;;;39.05;19.20;;;3.00;99.90;;;;;;5056689;28;20144;-85
2021/01/28 12:24:23;;;;;;;37.22;18.10;;;3.00;99.90;;;;;;5054891;28;20120;-87
2021/01/28 12:26:49;;;;;;;46.70;19.48;;;3.10;99.90;;;;;;5054936;28;20060;-87
2021/01/28 12:29:14;;;;;;;57.15;23.33;;;3.10;99.90;;;;;;5053432;28;20518;-87
2021/01/28 12:31:40;;;;;;;45.72;22.98;;;3.10;99.90;;;;;;5053673;28;20463;-86
2021/01/28 12:34:06;;;;;;;43.78;20.17;;;3.10;99.90;;;;;;5054514;28;20032;-84
2021/01/28 12:36:32;;;;;;;54.45;21.17;;;3.10;99.90;;;;;;5054536;28;20028;-85
2021/01/28 12:38:58;;;;;;;31.45;17.80;;;3.10;99.90;;;;;;5053032;28;20029;-86
2021/01/28 12:41:24;;;;;;;29.90;17.73;;;3.00;99.90;;;;;;5053847;28;20368;-86
2021/01/28 12:43:49;;;;;;;23.90;14.65;;;3.00;99.90;;;;;;5052560;28;20033;-85
2021/01/28 12:46:16;;;;;;;22.67;14.18;;;3.00;99.90;;;;;;5053500;28;20359;-87
2021/01/28 12:48:41;;;;;;;25.13;15.10;;;3.00;99.90;;;;;;5051944;28;20029;-86
2021/01/28 12:51:07;;;;;;;27.05;15.43;;;3.00;99.90;;;;;;5053870;28;20021;-86
2021/01/28 12:53:34;;;;;;;24.38;14.23;;;3.00;99.90;;;;;;5053911;28;20055;-87
2021/01/28 12:56:00;;;;;;;19.98;12.38;;;3.00;99.90;;;;;;5052515;28;20121;-85
2021/01/28 12:58:25;;;;;;;26.50;14.55;;;3.00;99.90;;;;;;5053931;28;20152;-86
2021/01/28 13:00:51;;;;;;;31.42;16.30;;;3.00;99.90;;;;;;5052447;28;20028;-84